createdAt,value
2019-04-10T00:00:28.689Z,32.77
2019-04-10T00:03:02.309Z,32.73
2019-04-10T00:05:36.172Z,32.78
2019-04-10T00:08:10.164Z,32.77
2019-04-10T00:10:45.842Z,32.75
2019-04-10T00:13:19.247Z,32.74
2019-04-10T00:15:52.914Z,32.80
2019-04-10T00:18:26.391Z,32.77
2019-04-10T00:21:00.825Z,32.82
2019-04-10T00:23:35.242Z,32.85
2019-04-10T00:26:09.811Z,32.86
2019-04-10T00:28:44.512Z,32.88
2019-04-10T00:31:18.040Z,32.88
2019-04-10T00:33:51.459Z,32.92
2019-04-10T00:36:26.848Z,32.79
2019-04-10T00:39:00.298Z,32.84
2019-04-10T00:41:35.278Z,32.83
2019-04-10T00:44:08.629Z,32.83
2019-04-10T00:46:42.165Z,32.87
2019-04-10T00:49:15.633Z,32.82
2019-04-10T00:51:49.915Z,32.83
2019-04-10T00:54:23.779Z,32.85
2019-04-10T00:56:57.123Z,32.87
2019-04-10T00:59:30.461Z,32.89
2019-04-10T01:02:04.601Z,32.92
2019-04-10T01:04:39.029Z,32.91
2019-04-10T01:07:13.453Z,32.90
2019-04-10T01:09:47.893Z,32.75
2019-04-10T01:12:21.565Z,32.84
2019-04-10T01:14:56.191Z,32.83
2019-04-10T01:17:31.128Z,32.81
2019-04-10T01:20:07.116Z,32.83
2019-04-10T01:22:41.492Z,32.79
2019-04-10T01:25:14.944Z,32.82
2019-04-10T01:27:48.341Z,32.79
2019-04-10T01:30:22.249Z,32.75
2019-04-10T01:32:56.536Z,32.82
2019-04-10T01:35:30.102Z,32.79
2019-04-10T01:38:05.654Z,32.80
2019-04-10T01:40:39.398Z,32.67
2019-04-10T01:43:17.107Z,32.67
2019-04-10T01:45:48.099Z,32.68
2019-04-10T01:48:21.435Z,32.68
2019-04-10T01:50:57.031Z,32.77
2019-04-10T01:53:30.590Z,32.66
2019-04-10T01:56:05.195Z,32.64
2019-04-10T01:58:38.811Z,32.69
2019-04-10T02:01:14.136Z,32.56
2019-04-10T02:03:47.647Z,32.64
2019-04-10T02:06:21.082Z,32.59
2019-04-10T02:08:54.433Z,32.65
2019-04-10T02:11:28.051Z,32.58
2019-04-10T02:14:01.546Z,32.52
2019-04-10T02:16:34.858Z,32.40
2019-04-10T02:19:08.348Z,32.55
2019-04-10T02:21:44.265Z,32.43
2019-04-10T02:24:18.755Z,32.57
2019-04-10T02:26:53.998Z,32.55
2019-04-10T02:29:28.043Z,32.61
2019-04-10T02:32:02.132Z,32.53
2019-04-10T02:34:36.947Z,32.57
2019-04-10T02:37:11.023Z,32.50
2019-04-10T02:39:47.800Z,32.59
2019-04-10T02:42:20.831Z,32.40
2019-04-10T02:44:54.343Z,32.59
2019-04-10T02:47:28.325Z,32.53
2019-04-10T02:50:03.512Z,32.60
2019-04-10T02:52:37.102Z,32.53
2019-04-10T02:55:12.046Z,32.51
2019-04-10T02:57:45.973Z,32.54
2019-04-10T03:00:20.340Z,32.54
2019-04-10T03:02:56.636Z,32.45
2019-04-10T03:05:30.470Z,32.51
2019-04-10T03:08:05.414Z,32.55
2019-04-10T03:10:47.366Z,32.60
2019-04-10T03:13:14.501Z,32.62
2019-04-10T03:15:49.708Z,32.56
2019-04-10T03:18:23.044Z,32.50
2019-04-10T03:20:56.466Z,32.60
2019-04-10T03:23:29.917Z,32.52
2019-04-10T03:26:03.576Z,32.59
2019-04-10T03:28:37.128Z,32.46
2019-04-10T03:31:10.774Z,32.28
2019-04-10T03:33:49.377Z,32.51
2019-04-10T03:36:21.184Z,32.48
2019-04-10T03:38:59.913Z,32.38
2019-04-10T03:41:30.298Z,32.23
2019-04-10T03:44:03.717Z,32.19
2019-04-10T03:46:38.702Z,31.98
2019-04-10T03:49:12.155Z,32.01
2019-04-10T03:51:47.082Z,31.91
2019-04-10T03:54:20.799Z,31.89
2019-04-10T03:56:54.198Z,31.94
2019-04-10T03:59:28.534Z,31.85
2019-04-10T04:02:03.098Z,31.99
2019-04-10T04:04:37.458Z,32.05
2019-04-10T04:07:11.292Z,31.46
2019-04-10T04:09:44.682Z,31.41
2019-04-10T04:12:18.192Z,31.22
2019-04-10T04:14:51.554Z,30.72
2019-04-10T04:17:24.849Z,30.24
2019-04-10T04:19:58.793Z,30.31
2019-04-10T04:22:32.691Z,30.10
2019-04-10T04:25:06.763Z,29.91
2019-04-10T04:27:40.193Z,29.67
2019-04-10T04:30:14.608Z,29.57
2019-04-10T04:32:48.430Z,29.15
2019-04-10T04:35:22.260Z,29.09
2019-04-10T04:37:55.643Z,29.06
2019-04-10T04:40:29.953Z,28.63
2019-04-10T04:43:03.693Z,28.65
2019-04-10T04:45:37.785Z,28.31
2019-04-10T04:48:11.179Z,28.16
2019-04-10T04:50:45.676Z,28.23
2019-04-10T04:53:19.237Z,27.79
2019-04-10T04:55:53.717Z,27.79
2019-04-10T04:58:27.008Z,27.89
2019-04-10T05:01:00.352Z,27.70
2019-04-10T05:03:33.682Z,27.72
2019-04-10T05:06:08.623Z,27.74
2019-04-10T05:08:42.092Z,27.47
2019-04-10T05:11:15.441Z,27.41
2019-04-10T05:13:49.047Z,27.74
2019-04-10T05:16:22.759Z,27.35
2019-04-10T05:18:56.573Z,27.36
2019-04-10T05:21:29.916Z,27.52
2019-04-10T05:24:03.320Z,27.63
2019-04-10T05:26:36.622Z,27.47
2019-04-10T05:29:11.020Z,27.25
2019-04-10T05:31:44.724Z,27.53
2019-04-10T05:34:18.318Z,27.72
2019-04-10T05:36:54.970Z,27.86
2019-04-10T05:39:39.802Z,27.62
2019-04-10T05:42:04.777Z,27.39
2019-04-10T05:44:40.187Z,27.70
2019-04-10T05:47:14.964Z,27.50
2019-04-10T05:49:49.150Z,27.33
2019-04-10T05:52:22.825Z,27.33
2019-04-10T05:54:56.178Z,27.63
2019-04-10T05:57:32.932Z,27.60
2019-04-10T06:00:08.290Z,27.90
2019-04-10T06:02:41.898Z,27.84
2019-04-10T06:05:18.142Z,27.74
2019-04-10T06:07:52.460Z,27.99
2019-04-10T06:10:26.741Z,27.99
2019-04-10T06:13:00.519Z,28.05
2019-04-10T06:15:35.126Z,27.96
2019-04-10T06:18:09.141Z,27.75
2019-04-10T06:20:43.010Z,28.00
2019-04-10T06:23:17.027Z,28.10
2019-04-10T06:25:50.788Z,27.84
2019-04-10T06:28:25.783Z,27.95
2019-04-10T06:30:59.317Z,27.75
2019-04-10T06:33:33.905Z,27.71
2019-04-10T06:36:07.511Z,27.68
2019-04-10T06:38:41.221Z,27.69
2019-04-10T06:41:16.197Z,27.75
2019-04-10T06:43:49.946Z,27.62
2019-04-10T06:46:24.337Z,27.58
2019-04-10T06:48:58.444Z,27.59
2019-04-10T06:51:33.420Z,27.68
2019-04-10T06:54:11.238Z,27.59
2019-04-10T06:56:43.041Z,27.83
2019-04-10T06:59:16.464Z,27.95
2019-04-10T07:01:53.378Z,27.97
2019-04-10T07:04:26.587Z,27.93
2019-04-10T07:07:09.362Z,28.19
2019-04-10T07:09:40.341Z,28.03
2019-04-10T07:12:14.947Z,27.66
2019-04-10T07:14:50.811Z,27.67
2019-04-10T07:17:23.719Z,27.96
2019-04-10T07:19:57.612Z,27.57
2019-04-10T07:22:31.384Z,27.84
2019-04-10T07:25:09.342Z,27.54
2019-04-10T07:27:41.775Z,27.52
2019-04-10T07:30:15.682Z,27.48
2019-04-10T07:32:49.322Z,27.55
2019-04-10T07:35:23.677Z,27.79
2019-04-10T07:37:59.610Z,27.70
2019-04-10T07:40:36.352Z,27.70
2019-04-10T07:43:08.227Z,27.81
2019-04-10T07:45:41.682Z,27.92
2019-04-10T07:48:16.168Z,27.86
2019-04-10T07:50:49.707Z,27.70
2019-04-10T07:53:23.141Z,27.70
2019-04-10T07:56:05.277Z,27.72
2019-04-10T07:58:31.996Z,27.58
2019-04-10T08:01:05.417Z,27.67
2019-04-10T08:03:39.563Z,27.57
2019-04-10T08:06:13.292Z,27.59
2019-04-10T08:08:46.924Z,27.64
2019-04-10T08:11:20.435Z,27.75
2019-04-10T08:13:54.965Z,27.72
2019-04-10T08:16:28.851Z,27.73
2019-04-10T08:19:02.332Z,27.34
2019-04-10T08:21:35.937Z,26.87
2019-04-10T08:24:11.425Z,26.08
2019-04-10T08:26:45.177Z,25.83
2019-04-10T08:29:22.149Z,24.84
2019-04-10T08:31:56.042Z,24.76
2019-04-10T08:34:29.317Z,24.16
2019-04-10T08:37:03.751Z,24.09
2019-04-10T08:39:41.671Z,24.00
2019-04-10T08:42:12.677Z,23.65
2019-04-10T08:44:46.621Z,23.91
2019-04-10T08:47:20.213Z,23.92
2019-04-10T08:49:54.911Z,23.79
2019-04-10T08:52:28.440Z,23.70
2019-04-10T08:55:01.993Z,23.80
2019-04-10T08:57:36.377Z,23.71
2019-04-10T09:00:10.375Z,24.10
2019-04-10T09:02:44.473Z,23.88
2019-04-10T09:05:17.983Z,23.85
2019-04-10T09:07:52.634Z,24.02
2019-04-10T09:10:28.135Z,23.89
2019-04-10T09:13:01.550Z,23.83
2019-04-10T09:15:36.106Z,23.38
2019-04-10T09:18:11.361Z,23.71
2019-04-10T09:20:45.257Z,23.45
2019-04-10T09:23:30.842Z,23.43
2019-04-10T09:25:53.608Z,23.88
2019-04-10T09:28:27.095Z,23.97
2019-04-10T09:31:01.684Z,24.07
2019-04-10T09:33:35.126Z,23.78
2019-04-10T09:36:09.054Z,24.07
2019-04-10T09:38:43.946Z,23.96
2019-04-10T09:41:17.583Z,23.69
2019-04-10T09:43:52.695Z,23.73
2019-04-10T09:46:26.819Z,23.89
2019-04-10T09:49:00.547Z,24.77
2019-04-10T09:51:34.144Z,24.96
2019-04-10T09:54:07.926Z,24.51
2019-04-10T09:56:41.975Z,24.82
2019-04-10T09:59:16.026Z,24.86
2019-04-10T10:01:51.275Z,24.94
2019-04-10T10:04:25.743Z,25.06
2019-04-10T10:06:59.823Z,24.90
2019-04-10T10:09:34.543Z,25.05
2019-04-10T10:12:09.509Z,25.29
2019-04-10T10:14:44.207Z,25.41
2019-04-10T10:17:17.815Z,25.36
2019-04-10T10:19:53.545Z,25.74
2019-04-10T10:22:27.296Z,25.46
2019-04-10T10:25:02.927Z,25.65
2019-04-10T10:27:38.323Z,25.86
2019-04-10T10:30:11.978Z,25.77
2019-04-10T10:32:45.618Z,25.95
2019-04-10T10:35:19.007Z,25.65
2019-04-10T10:37:52.384Z,25.66
2019-04-10T10:40:25.689Z,25.83
2019-04-10T10:43:00.239Z,25.97
2019-04-10T10:45:34.661Z,25.78
2019-04-10T10:48:08.746Z,26.01
2019-04-10T10:50:43.524Z,26.24
2019-04-10T10:53:16.862Z,26.12
2019-04-10T10:55:51.363Z,26.23
2019-04-10T10:58:25.818Z,26.31
2019-04-10T11:00:59.860Z,25.88
2019-04-10T11:03:34.148Z,25.43
2019-04-10T11:06:08.706Z,24.90
2019-04-10T11:08:43.914Z,24.67
2019-04-10T11:11:17.487Z,24.67
2019-04-10T11:13:50.830Z,24.68
2019-04-10T11:16:24.836Z,24.30
2019-04-10T11:18:59.269Z,23.83
2019-04-10T11:21:32.597Z,23.78
2019-04-10T11:24:06.925Z,23.69
2019-04-10T11:26:40.427Z,23.69
2019-04-10T11:29:14.360Z,23.70
2019-04-10T11:31:48.945Z,23.71
2019-04-10T11:34:22.964Z,23.81
2019-04-10T11:37:16.625Z,23.87
2019-04-10T11:39:34.782Z,23.85
2019-04-10T11:42:09.940Z,23.80
2019-04-10T11:44:45.649Z,23.71
2019-04-10T11:47:19.916Z,23.67
2019-04-10T11:49:53.817Z,23.45
2019-04-10T11:55:10.582Z,23.48
2019-04-10T11:57:39.047Z,23.14
2019-04-10T12:00:18.824Z,23.12
2019-04-10T12:02:49.847Z,22.91
2019-04-10T12:05:25.483Z,23.03
2019-04-10T12:13:08.250Z,22.80
2019-04-10T12:15:42.897Z,22.75
2019-04-10T12:18:16.823Z,22.61
2019-04-10T12:20:50.146Z,22.76
2019-04-10T12:23:23.600Z,22.61
2019-04-10T12:25:56.942Z,22.48
2019-04-10T12:28:31.502Z,22.57
2019-04-10T12:31:05.908Z,22.44
2019-04-10T12:33:40.349Z,22.37
2019-04-10T12:36:14.202Z,22.19
2019-04-10T12:38:48.565Z,22.06
2019-04-10T12:41:21.859Z,22.04
2019-04-10T12:43:55.191Z,22.00
2019-04-10T12:46:28.907Z,21.86
2019-04-10T12:49:03.718Z,21.76
2019-04-10T12:51:38.232Z,21.78
2019-04-10T12:54:12.113Z,21.72
2019-04-10T12:56:46.356Z,21.75
2019-04-10T12:59:19.806Z,21.74
2019-04-10T13:01:54.046Z,21.66
2019-04-10T13:04:28.198Z,21.58
2019-04-10T13:07:01.727Z,21.64
2019-04-10T13:09:35.080Z,21.62
2019-04-10T13:12:09.059Z,21.64
2019-04-10T13:14:43.110Z,21.75
2019-04-10T13:17:16.641Z,21.71
2019-04-10T13:19:51.326Z,21.75
2019-04-10T13:22:25.513Z,21.73
2019-04-10T13:25:01.810Z,21.61
2019-04-10T13:27:35.237Z,21.24
2019-04-10T13:30:11.176Z,21.36
2019-04-10T13:32:44.444Z,20.94
2019-04-10T13:35:19.501Z,20.82
2019-04-10T13:37:53.038Z,21.42
2019-04-10T13:40:27.901Z,21.55
2019-04-10T13:43:01.368Z,21.71
2019-04-10T13:45:35.344Z,21.66
2019-04-10T13:48:08.766Z,21.48
2019-04-10T13:50:43.173Z,21.45
2019-04-10T13:53:17.454Z,21.44
2019-04-10T13:55:51.238Z,21.56
2019-04-10T13:58:26.474Z,21.63
2019-04-10T14:01:01.014Z,21.68
2019-04-10T14:03:36.478Z,21.64
2019-04-10T14:06:09.836Z,21.65
2019-04-10T14:09:05.835Z,21.43
2019-04-10T14:11:19.551Z,21.35
2019-04-10T14:13:53.997Z,21.26
2019-04-10T14:16:27.476Z,21.38
2019-04-10T14:19:01.223Z,21.35
2019-04-10T14:21:35.255Z,21.49
2019-04-10T14:24:09.532Z,21.79
2019-04-10T14:26:48.879Z,21.61
2019-04-10T14:29:18.500Z,21.04
2019-04-10T14:31:53.261Z,21.19
2019-04-10T14:34:28.458Z,21.75
2019-04-10T14:37:02.991Z,21.94
2019-04-10T14:39:37.552Z,22.35
2019-04-10T14:42:11.780Z,22.57
2019-04-10T14:44:46.403Z,22.87
2019-04-10T14:47:19.824Z,22.91
2019-04-10T14:49:54.880Z,23.06
2019-04-10T14:52:29.469Z,23.28
2019-04-10T14:55:04.067Z,23.32
2019-04-10T14:57:39.092Z,23.50
2019-04-10T15:00:12.785Z,23.68
2019-04-10T15:02:46.666Z,23.88
2019-04-10T15:05:20.281Z,24.00
2019-04-10T15:07:53.710Z,24.22
2019-04-10T15:10:27.178Z,24.20
2019-04-10T15:13:09.087Z,24.33
2019-04-10T15:15:36.600Z,24.39
2019-04-10T15:18:10.846Z,24.48
2019-04-10T15:20:45.314Z,24.41
2019-04-10T15:23:18.893Z,24.12
2019-04-10T15:25:52.875Z,24.32
2019-04-10T15:28:28.000Z,24.29
2019-04-10T15:31:02.057Z,24.38
2019-04-10T15:33:37.297Z,24.60
2019-04-10T15:36:11.597Z,24.68
2019-04-10T15:38:46.401Z,24.69
2019-04-10T15:41:23.901Z,24.85
2019-04-10T15:43:57.782Z,24.92
2019-04-10T15:46:31.422Z,24.93
2019-04-10T15:49:07.023Z,24.97
2019-04-10T15:51:41.378Z,25.03
2019-04-10T15:54:15.867Z,24.92
2019-04-10T15:56:56.687Z,25.07
2019-04-10T15:59:30.780Z,24.47
2019-04-10T16:02:09.448Z,25.67
2019-04-10T16:04:49.258Z,25.12
2019-04-10T16:07:24.458Z,25.05
2019-04-10T16:09:59.105Z,25.12
2019-04-10T16:12:33.452Z,25.16
2019-04-10T16:15:07.002Z,24.62
2019-04-10T16:17:41.859Z,24.85
2019-04-10T16:20:17.835Z,24.90
2019-04-10T16:22:51.333Z,25.05
2019-04-10T16:25:25.603Z,25.19
2019-04-10T16:27:59.182Z,25.19
2019-04-10T16:30:33.060Z,25.21
2019-04-10T16:33:07.122Z,25.21
2019-04-10T16:35:41.662Z,25.36
2019-04-10T16:38:16.267Z,25.48
2019-04-10T16:40:50.368Z,25.65
2019-04-10T16:43:26.964Z,25.81
2019-04-10T16:46:00.842Z,26.00
2019-04-10T16:48:35.994Z,26.06
2019-04-10T16:51:12.036Z,26.18
2019-04-10T16:53:46.224Z,26.07
2019-04-10T16:56:19.556Z,26.06
2019-04-10T16:58:53.066Z,26.05
2019-04-10T17:01:26.847Z,25.99
2019-04-10T17:04:00.838Z,26.00
2019-04-10T17:06:36.467Z,26.03
2019-04-10T17:09:10.466Z,25.86
2019-04-10T17:11:45.202Z,26.00
2019-04-10T17:14:20.400Z,26.19
2019-04-10T17:16:54.030Z,26.19
2019-04-10T17:19:28.826Z,26.20
2019-04-10T17:22:04.688Z,26.29
2019-04-10T17:24:39.648Z,26.29
2019-04-10T17:27:13.586Z,26.17
2019-04-10T17:29:47.570Z,26.26
2019-04-10T17:32:21.468Z,26.36
2019-04-10T17:34:57.073Z,26.41
2019-04-10T17:37:31.783Z,26.48
2019-04-10T17:40:08.329Z,26.50
2019-04-10T17:42:42.476Z,26.63
2019-04-10T17:45:15.990Z,26.60
2019-04-10T17:47:49.612Z,26.51
2019-04-10T17:50:24.505Z,26.65
2019-04-10T17:52:58.895Z,26.69
2019-04-10T17:55:33.666Z,26.69
2019-04-10T17:58:07.589Z,26.75
2019-04-10T18:00:41.009Z,26.78
2019-04-10T18:03:17.684Z,26.85
2019-04-10T18:05:50.821Z,26.91
2019-04-10T18:08:26.747Z,26.86
2019-04-10T18:11:01.993Z,26.55
2019-04-10T18:13:49.174Z,26.65
2019-04-10T18:16:36.496Z,26.68
2019-04-10T18:19:30.323Z,26.71
2019-04-10T18:22:28.883Z,26.73
2019-04-10T18:25:13.859Z,26.78
2019-04-10T18:27:56.954Z,26.78
2019-04-10T18:30:39.106Z,26.80
2019-04-10T18:33:16.128Z,26.85
2019-04-10T18:35:51.511Z,26.88
2019-04-10T18:38:25.796Z,26.88
2019-04-10T18:41:05.282Z,26.92
2019-04-10T18:43:37.707Z,26.62
2019-04-10T18:46:16.409Z,26.70
2019-04-10T18:48:51.382Z,26.78
2019-04-10T18:51:25.833Z,26.79
2019-04-10T18:54:01.513Z,26.78
2019-04-10T18:56:35.470Z,26.83
2019-04-10T18:59:10.210Z,26.76
2019-04-10T19:01:45.434Z,26.74
2019-04-10T19:04:18.834Z,26.73
2019-04-10T19:06:53.129Z,26.74
2019-04-10T19:09:28.652Z,26.73
2019-04-10T19:12:02.498Z,26.93
2019-04-10T19:14:37.171Z,26.81
2019-04-10T19:17:11.153Z,26.83
2019-04-10T19:19:45.411Z,26.79
2019-04-10T19:22:20.199Z,26.92
2019-04-10T19:24:54.751Z,26.90
2019-04-10T19:27:28.481Z,26.82
2019-04-10T19:30:02.764Z,26.78
2019-04-10T19:32:37.428Z,26.87
2019-04-10T19:35:11.562Z,26.91
2019-04-10T19:37:45.832Z,26.65
2019-04-10T19:40:19.997Z,26.82
2019-04-10T19:42:53.627Z,26.79
2019-04-10T19:45:27.950Z,26.80
2019-04-10T19:48:01.702Z,26.79
2019-04-10T19:50:35.280Z,26.82
2019-04-10T19:53:08.994Z,26.81
2019-04-10T19:55:44.126Z,26.83
2019-04-10T19:58:17.877Z,26.81
2019-04-10T20:00:52.684Z,26.78
2019-04-10T20:06:00.217Z,26.86
2019-04-10T20:08:33.982Z,26.86
2019-04-10T20:11:07.433Z,27.03
2019-04-10T20:13:42.949Z,27.24
2019-04-10T20:16:17.385Z,27.50
2019-04-10T20:18:50.866Z,27.67
2019-04-10T20:21:24.216Z,27.95
2019-04-10T20:23:58.573Z,28.03
2019-04-10T20:26:32.193Z,28.26
2019-04-10T20:29:06.585Z,28.51
2019-04-10T20:31:40.212Z,28.60
2019-04-10T20:34:13.722Z,28.64
2019-04-10T20:36:47.099Z,28.54
2019-04-10T20:39:21.085Z,28.75
2019-04-10T20:41:56.825Z,28.91
2019-04-10T20:44:29.968Z,29.02
2019-04-10T20:47:03.485Z,29.05
2019-04-10T20:49:36.814Z,29.12
2019-04-10T20:52:11.959Z,28.59
2019-04-10T20:54:45.425Z,28.51
2019-04-10T20:57:19.420Z,28.52
2019-04-10T20:59:53.281Z,28.48
2019-04-10T21:02:27.149Z,28.19
2019-04-10T21:05:06.062Z,28.34
2019-04-10T21:07:37.487Z,28.44
2019-04-10T21:10:11.028Z,28.43
2019-04-10T21:12:44.477Z,28.08
2019-04-10T21:15:17.879Z,28.18
2019-04-10T21:17:51.326Z,28.28
2019-04-10T21:20:26.103Z,28.39
2019-04-10T21:22:59.919Z,28.07
2019-04-10T21:25:35.054Z,28.28
2019-04-10T21:28:08.439Z,28.33
2019-04-10T21:30:42.455Z,28.37
2019-04-10T21:33:16.327Z,28.36
2019-04-10T21:35:49.791Z,28.43
2019-04-10T21:38:23.590Z,28.44
2019-04-10T21:40:57.425Z,28.39
2019-04-10T21:43:31.093Z,28.41
2019-04-10T21:46:05.990Z,28.39
2019-04-10T21:48:41.938Z,28.42
2019-04-10T21:51:15.415Z,28.47
2019-04-10T21:53:49.372Z,28.46
2019-04-10T21:56:22.877Z,28.47
2019-04-10T21:58:56.958Z,28.48
2019-04-10T22:01:30.484Z,28.42
2019-04-10T22:04:03.804Z,28.40
2019-04-10T22:06:39.110Z,28.47
2019-04-10T22:09:12.820Z,28.43
2019-04-10T22:11:47.651Z,28.36
2019-04-10T22:14:21.487Z,28.39
2019-04-10T22:16:54.898Z,28.44
2019-04-10T22:19:28.475Z,28.37
2019-04-10T22:22:04.208Z,28.22
2019-04-10T22:24:38.409Z,28.37
2019-04-10T22:27:12.038Z,28.10
2019-04-10T22:29:45.542Z,28.30
2019-04-10T22:32:18.922Z,28.39
2019-04-10T22:34:52.771Z,28.39
2019-04-10T22:37:26.217Z,28.09
2019-04-10T22:39:59.555Z,28.25
2019-04-10T22:42:40.031Z,28.17
2019-04-10T22:45:24.507Z,28.33
2019-04-10T22:47:58.473Z,28.31
2019-04-10T22:50:34.356Z,28.39
2019-04-10T22:53:08.869Z,28.38
2019-04-10T22:55:42.366Z,28.44
2019-04-10T22:58:16.994Z,28.05
2019-04-10T23:00:51.036Z,28.24
2019-04-10T23:03:24.524Z,28.06
2019-04-10T23:05:58.616Z,28.28
2019-04-10T23:08:32.198Z,28.34
2019-04-10T23:11:07.705Z,28.33
2019-04-10T23:13:42.427Z,27.96
2019-04-10T23:16:17.152Z,28.27
2019-04-10T23:18:51.810Z,28.29
2019-04-10T23:21:25.273Z,28.38
2019-04-10T23:23:59.141Z,28.43
2019-04-10T23:26:33.306Z,28.46
2019-04-10T23:29:06.717Z,28.49
2019-04-10T23:31:40.239Z,28.43
2019-04-10T23:34:14.565Z,28.48
2019-04-10T23:36:48.671Z,28.51
2019-04-10T23:39:22.166Z,28.57
2019-04-10T23:41:55.516Z,28.61
2019-04-10T23:44:29.114Z,28.47
2019-04-10T23:47:02.557Z,28.64
2019-04-10T23:49:35.856Z,28.62
2019-04-10T23:52:09.690Z,28.62
2019-04-10T23:54:43.651Z,28.70
2019-04-10T23:57:17.006Z,28.61
2019-04-10T23:59:50.982Z,28.64
